sensor_id;sensor_type;location;lat;lon;timestamp;P1;durP1;ratioP1;P2;durP2;ratioP2
14139;SDS011;7150;53.514;9.988;2024-02-15T00:00:19;11.57;;;7.40;;
14139;SDS011;7150;53.514;9.988;2024-02-15T00:02:45;10.57;;;7.90;;
14139;SDS011;7150;53.514;9.988;2024-02-15T00:05:11;10.67;;;7.57;;
14139;SDS011;7150;53.514;9.988;2024-02-15T00:07:37;11.10;;;8.07;;
14139;SDS011;7150;53.514;9.988;2024-02-15T00:10:03;10.80;;;8.07;;
14139;SDS011;7150;53.514;9.988;2024-02-15T00:12:29;12.90;;;8.20;;
14139;SDS011;7150;53.514;9.988;2024-02-15T00:14:55;11.87;;;8.17;;
14139;SDS011;7150;53.514;9.988;2024-02-15T00:17:23;13.40;;;9.50;;
14139;SDS011;7150;53.514;9.988;2024-02-15T00:19:55;13.43;;;9.57;;
14139;SDS011;7150;53.514;9.988;2024-02-15T00:22:21;14.00;;;9.40;;
14139;SDS011;7150;53.514;9.988;2024-02-15T00:24:47;12.10;;;8.70;;
14139;SDS011;7150;53.514;9.988;2024-02-15T00:27:14;14.33;;;9.83;;
14139;SDS011;7150;53.514;9.988;2024-02-15T00:29:40;14.87;;;9.40;;
14139;SDS011;7150;53.514;9.988;2024-02-15T00:32:06;16.57;;;10.90;;
14139;SDS011;7150;53.514;9.988;2024-02-15T00:34:32;16.23;;;11.37;;
14139;SDS011;7150;53.514;9.988;2024-02-15T00:36:58;14.27;;;10.30;;
14139;SDS011;7150;53.514;9.988;2024-02-15T00:39:24;15.27;;;11.27;;
14139;SDS011;7150;53.514;9.988;2024-02-15T00:41:49;16.60;;;11.00;;
14139;SDS011;7150;53.514;9.988;2024-02-15T00:44:15;15.37;;;10.80;;
14139;SDS011;7150;53.514;9.988;2024-02-15T00:46:42;15.83;;;11.50;;
14139;SDS011;7150;53.514;9.988;2024-02-15T00:49:08;14.43;;;10.93;;
14139;SDS011;7150;53.514;9.988;2024-02-15T00:51:36;14.67;;;10.83;;
14139;SDS011;7150;53.514;9.988;2024-02-15T00:54:02;16.27;;;11.37;;
14139;SDS011;7150;53.514;9.988;2024-02-15T00:56:28;16.33;;;11.40;;
14139;SDS011;7150;53.514;9.988;2024-02-15T00:58:55;16.30;;;11.30;;
14139;SDS011;7150;53.514;9.988;2024-02-15T01:01:21;14.40;;;10.57;;
14139;SDS011;7150;53.514;9.988;2024-02-15T01:03:47;16.50;;;11.63;;
14139;SDS011;7150;53.514;9.988;2024-02-15T01:06:12;15.40;;;10.63;;
14139;SDS011;7150;53.514;9.988;2024-02-15T01:08:38;15.90;;;11.27;;
14139;SDS011;7150;53.514;9.988;2024-02-15T01:11:04;16.57;;;11.50;;
14139;SDS011;7150;53.514;9.988;2024-02-15T01:13:31;16.80;;;11.63;;
14139;SDS011;7150;53.514;9.988;2024-02-15T01:15:56;15.60;;;10.57;;
14139;SDS011;7150;53.514;9.988;2024-02-15T01:18:22;16.27;;;11.43;;
14139;SDS011;7150;53.514;9.988;2024-02-15T01:20:47;14.80;;;10.67;;
14139;SDS011;7150;53.514;9.988;2024-02-15T01:23:13;16.37;;;10.77;;
14139;SDS011;7150;53.514;9.988;2024-02-15T01:25:39;16.43;;;11.80;;
14139;SDS011;7150;53.514;9.988;2024-02-15T01:28:05;16.13;;;10.57;;
14139;SDS011;7150;53.514;9.988;2024-02-15T01:30:30;15.83;;;10.63;;
14139;SDS011;7150;53.514;9.988;2024-02-15T01:32:56;17.90;;;10.20;;
14139;SDS011;7150;53.514;9.988;2024-02-15T01:35:22;12.77;;;9.03;;
14139;SDS011;7150;53.514;9.988;2024-02-15T01:37:48;15.57;;;10.60;;
14139;SDS011;7150;53.514;9.988;2024-02-15T01:40:13;19.37;;;12.17;;
14139;SDS011;7150;53.514;9.988;2024-02-15T01:42:40;16.53;;;10.90;;
14139;SDS011;7150;53.514;9.988;2024-02-15T01:45:05;16.67;;;11.03;;
14139;SDS011;7150;53.514;9.988;2024-02-15T01:47:31;15.13;;;10.73;;
14139;SDS011;7150;53.514;9.988;2024-02-15T01:49:57;16.97;;;11.40;;
14139;SDS011;7150;53.514;9.988;2024-02-15T01:52:22;16.23;;;11.37;;
14139;SDS011;7150;53.514;9.988;2024-02-15T01:54:48;18.87;;;10.90;;
14139;SDS011;7150;53.514;9.988;2024-02-15T01:57:17;17.43;;;11.27;;
14139;SDS011;7150;53.514;9.988;2024-02-15T01:59:44;16.90;;;11.07;;
14139;SDS011;7150;53.514;9.988;2024-02-15T02:02:10;17.97;;;11.83;;
14139;SDS011;7150;53.514;9.988;2024-02-15T02:04:39;17.00;;;11.30;;
14139;SDS011;7150;53.514;9.988;2024-02-15T02:07:06;16.17;;;11.80;;
14139;SDS011;7150;53.514;9.988;2024-02-15T02:09:32;17.80;;;12.13;;
14139;SDS011;7150;53.514;9.988;2024-02-15T02:11:58;18.63;;;12.97;;
14139;SDS011;7150;53.514;9.988;2024-02-15T02:14:23;20.77;;;13.27;;
14139;SDS011;7150;53.514;9.988;2024-02-15T02:16:49;18.17;;;12.37;;
14139;SDS011;7150;53.514;9.988;2024-02-15T02:19:14;20.97;;;12.70;;
14139;SDS011;7150;53.514;9.988;2024-02-15T02:21:42;18.17;;;12.43;;
14139;SDS011;7150;53.514;9.988;2024-02-15T02:24:12;17.43;;;12.53;;
14139;SDS011;7150;53.514;9.988;2024-02-15T02:26:39;18.97;;;11.90;;
14139;SDS011;7150;53.514;9.988;2024-02-15T02:29:05;21.57;;;13.83;;
14139;SDS011;7150;53.514;9.988;2024-02-15T02:31:32;18.43;;;12.73;;
14139;SDS011;7150;53.514;9.988;2024-02-15T02:34:01;16.17;;;11.67;;
14139;SDS011;7150;53.514;9.988;2024-02-15T02:36:27;18.43;;;12.33;;
14139;SDS011;7150;53.514;9.988;2024-02-15T02:38:54;18.40;;;13.07;;
14139;SDS011;7150;53.514;9.988;2024-02-15T02:41:20;20.17;;;12.40;;
14139;SDS011;7150;53.514;9.988;2024-02-15T02:43:46;20.07;;;11.93;;
14139;SDS011;7150;53.514;9.988;2024-02-15T02:46:12;18.37;;;11.93;;
14139;SDS011;7150;53.514;9.988;2024-02-15T02:48:38;17.57;;;12.03;;
14139;SDS011;7150;53.514;9.988;2024-02-15T02:51:04;17.23;;;11.40;;
14139;SDS011;7150;53.514;9.988;2024-02-15T02:53:31;16.17;;;11.03;;
14139;SDS011;7150;53.514;9.988;2024-02-15T02:55:56;15.43;;;10.27;;
14139;SDS011;7150;53.514;9.988;2024-02-15T02:58:22;16.00;;;10.97;;
14139;SDS011;7150;53.514;9.988;2024-02-15T03:00:48;15.23;;;10.30;;
14139;SDS011;7150;53.514;9.988;2024-02-15T03:03:14;13.10;;;9.17;;
14139;SDS011;7150;53.514;9.988;2024-02-15T03:05:40;12.00;;;8.73;;
14139;SDS011;7150;53.514;9.988;2024-02-15T03:08:08;11.77;;;8.83;;
14139;SDS011;7150;53.514;9.988;2024-02-15T03:10:34;13.23;;;9.37;;
14139;SDS011;7150;53.514;9.988;2024-02-15T03:12:59;13.93;;;9.33;;
14139;SDS011;7150;53.514;9.988;2024-02-15T03:15:25;12.83;;;8.43;;
14139;SDS011;7150;53.514;9.988;2024-02-15T03:17:50;15.73;;;9.07;;
14139;SDS011;7150;53.514;9.988;2024-02-15T03:20:16;12.07;;;7.93;;
14139;SDS011;7150;53.514;9.988;2024-02-15T03:22:55;11.90;;;8.33;;
14139;SDS011;7150;53.514;9.988;2024-02-15T03:25:25;10.47;;;7.57;;
14139;SDS011;7150;53.514;9.988;2024-02-15T03:27:54;12.23;;;7.83;;
14139;SDS011;7150;53.514;9.988;2024-02-15T03:30:20;10.07;;;7.73;;
14139;SDS011;7150;53.514;9.988;2024-02-15T03:32:47;9.57;;;7.30;;
14139;SDS011;7150;53.514;9.988;2024-02-15T03:35:13;10.70;;;7.80;;
14139;SDS011;7150;53.514;9.988;2024-02-15T03:37:40;12.33;;;8.37;;
14139;SDS011;7150;53.514;9.988;2024-02-15T03:40:06;11.70;;;8.20;;
14139;SDS011;7150;53.514;9.988;2024-02-15T03:42:33;12.80;;;8.40;;
14139;SDS011;7150;53.514;9.988;2024-02-15T03:45:03;12.80;;;8.70;;
14139;SDS011;7150;53.514;9.988;2024-02-15T03:47:31;15.97;;;10.20;;
14139;SDS011;7150;53.514;9.988;2024-02-15T03:50:06;17.50;;;10.50;;
14139;SDS011;7150;53.514;9.988;2024-02-15T03:52:35;16.73;;;11.10;;
14139;SDS011;7150;53.514;9.988;2024-02-15T03:55:01;17.80;;;10.17;;
14139;SDS011;7150;53.514;9.988;2024-02-15T03:57:29;15.90;;;9.87;;
14139;SDS011;7150;53.514;9.988;2024-02-15T03:59:55;17.63;;;11.47;;
14139;SDS011;7150;53.514;9.988;2024-02-15T04:02:24;19.30;;;11.37;;
14139;SDS011;7150;53.514;9.988;2024-02-15T04:04:54;19.03;;;11.73;;
14139;SDS011;7150;53.514;9.988;2024-02-15T04:07:20;18.97;;;11.90;;
14139;SDS011;7150;53.514;9.988;2024-02-15T04:09:46;22.47;;;11.77;;
14139;SDS011;7150;53.514;9.988;2024-02-15T04:12:12;20.27;;;12.23;;
14139;SDS011;7150;53.514;9.988;2024-02-15T04:14:39;20.03;;;12.43;;
14139;SDS011;7150;53.514;9.988;2024-02-15T04:17:05;23.00;;;12.53;;
14139;SDS011;7150;53.514;9.988;2024-02-15T04:19:31;20.93;;;13.00;;
14139;SDS011;7150;53.514;9.988;2024-02-15T04:21:57;20.10;;;13.17;;
14139;SDS011;7150;53.514;9.988;2024-02-15T04:24:24;20.80;;;12.10;;
14139;SDS011;7150;53.514;9.988;2024-02-15T04:26:50;21.13;;;13.13;;
14139;SDS011;7150;53.514;9.988;2024-02-15T04:29:16;23.47;;;14.00;;
14139;SDS011;7150;53.514;9.988;2024-02-15T04:31:45;22.70;;;13.10;;
14139;SDS011;7150;53.514;9.988;2024-02-15T04:34:14;20.43;;;11.90;;
14139;SDS011;7150;53.514;9.988;2024-02-15T04:36:46;20.43;;;13.17;;
14139;SDS011;7150;53.514;9.988;2024-02-15T04:39:18;23.33;;;13.53;;
14139;SDS011;7150;53.514;9.988;2024-02-15T04:41:52;21.80;;;13.17;;
14139;SDS011;7150;53.514;9.988;2024-02-15T04:44:18;22.20;;;13.77;;
14139;SDS011;7150;53.514;9.988;2024-02-15T04:46:51;24.20;;;13.43;;
14139;SDS011;7150;53.514;9.988;2024-02-15T04:49:17;19.30;;;12.83;;
14139;SDS011;7150;53.514;9.988;2024-02-15T04:51:43;22.70;;;13.57;;
14139;SDS011;7150;53.514;9.988;2024-02-15T04:54:09;26.23;;;15.47;;
14139;SDS011;7150;53.514;9.988;2024-02-15T04:56:38;22.63;;;13.33;;
14139;SDS011;7150;53.514;9.988;2024-02-15T04:59:05;25.80;;;14.73;;
14139;SDS011;7150;53.514;9.988;2024-02-15T05:01:33;20.80;;;13.13;;
14139;SDS011;7150;53.514;9.988;2024-02-15T05:03:59;22.57;;;13.00;;
14139;SDS011;7150;53.514;9.988;2024-02-15T05:06:25;25.83;;;15.07;;
14139;SDS011;7150;53.514;9.988;2024-02-15T05:08:54;24.17;;;15.10;;
14139;SDS011;7150;53.514;9.988;2024-02-15T05:11:22;24.40;;;14.17;;
14139;SDS011;7150;53.514;9.988;2024-02-15T05:13:48;23.53;;;14.20;;
14139;SDS011;7150;53.514;9.988;2024-02-15T05:16:17;21.70;;;13.37;;
14139;SDS011;7150;53.514;9.988;2024-02-15T05:18:43;20.60;;;12.77;;
14139;SDS011;7150;53.514;9.988;2024-02-15T05:21:10;21.67;;;14.20;;
14139;SDS011;7150;53.514;9.988;2024-02-15T05:23:36;18.83;;;11.90;;
14139;SDS011;7150;53.514;9.988;2024-02-15T05:26:04;24.27;;;13.37;;
14139;SDS011;7150;53.514;9.988;2024-02-15T05:28:30;21.83;;;13.80;;
14139;SDS011;7150;53.514;9.988;2024-02-15T05:34:02;20.97;;;12.30;;
14139;SDS011;7150;53.514;9.988;2024-02-15T05:36:29;21.53;;;13.57;;
14139;SDS011;7150;53.514;9.988;2024-02-15T05:38:55;19.90;;;12.63;;
14139;SDS011;7150;53.514;9.988;2024-02-15T05:41:20;19.03;;;12.13;;
14139;SDS011;7150;53.514;9.988;2024-02-15T05:43:47;19.07;;;11.87;;
14139;SDS011;7150;53.514;9.988;2024-02-15T05:46:18;22.13;;;13.07;;
14139;SDS011;7150;53.514;9.988;2024-02-15T05:48:46;22.23;;;13.27;;
14139;SDS011;7150;53.514;9.988;2024-02-15T05:51:12;22.33;;;12.60;;
14139;SDS011;7150;53.514;9.988;2024-02-15T05:53:37;20.90;;;12.67;;
14139;SDS011;7150;53.514;9.988;2024-02-15T05:56:04;21.43;;;13.17;;
14139;SDS011;7150;53.514;9.988;2024-02-15T05:58:31;22.83;;;13.40;;
14139;SDS011;7150;53.514;9.988;2024-02-15T06:00:57;23.17;;;13.50;;
14139;SDS011;7150;53.514;9.988;2024-02-15T06:03:29;23.20;;;13.27;;
14139;SDS011;7150;53.514;9.988;2024-02-15T06:06:00;22.47;;;13.13;;
14139;SDS011;7150;53.514;9.988;2024-02-15T06:08:30;21.83;;;13.53;;
14139;SDS011;7150;53.514;9.988;2024-02-15T06:10:55;21.43;;;12.47;;
14139;SDS011;7150;53.514;9.988;2024-02-15T06:13:21;21.90;;;12.53;;
14139;SDS011;7150;53.514;9.988;2024-02-15T06:15:47;23.27;;;13.23;;
14139;SDS011;7150;53.514;9.988;2024-02-15T06:18:17;23.77;;;13.10;;
14139;SDS011;7150;53.514;9.988;2024-02-15T06:20:46;25.60;;;13.33;;
14139;SDS011;7150;53.514;9.988;2024-02-15T06:23:14;23.73;;;13.03;;
14139;SDS011;7150;53.514;9.988;2024-02-15T06:25:39;24.33;;;14.77;;
14139;SDS011;7150;53.514;9.988;2024-02-15T06:28:05;27.33;;;14.60;;
14139;SDS011;7150;53.514;9.988;2024-02-15T06:30:39;24.63;;;13.87;;
14139;SDS011;7150;53.514;9.988;2024-02-15T06:33:23;23.73;;;14.10;;
14139;SDS011;7150;53.514;9.988;2024-02-15T06:36:08;23.73;;;13.10;;
14139;SDS011;7150;53.514;9.988;2024-02-15T06:38:52;24.80;;;13.87;;
14139;SDS011;7150;53.514;9.988;2024-02-15T06:41:36;26.20;;;13.20;;
14139;SDS011;7150;53.514;9.988;2024-02-15T06:44:02;22.03;;;12.33;;
14139;SDS011;7150;53.514;9.988;2024-02-15T06:46:28;24.37;;;12.67;;
14139;SDS011;7150;53.514;9.988;2024-02-15T06:48:53;25.23;;;12.60;;
14139;SDS011;7150;53.514;9.988;2024-02-15T06:51:19;23.43;;;12.43;;
14139;SDS011;7150;53.514;9.988;2024-02-15T06:53:45;24.90;;;13.17;;
14139;SDS011;7150;53.514;9.988;2024-02-15T06:56:11;22.70;;;13.00;;
14139;SDS011;7150;53.514;9.988;2024-02-15T06:58:38;26.20;;;12.87;;
14139;SDS011;7150;53.514;9.988;2024-02-15T07:01:05;24.37;;;14.07;;
14139;SDS011;7150;53.514;9.988;2024-02-15T07:03:31;26.97;;;13.47;;
14139;SDS011;7150;53.514;9.988;2024-02-15T07:05:59;27.60;;;14.40;;
14139;SDS011;7150;53.514;9.988;2024-02-15T07:08:25;24.73;;;13.47;;
14139;SDS011;7150;53.514;9.988;2024-02-15T07:10:50;27.00;;;14.00;;
14139;SDS011;7150;53.514;9.988;2024-02-15T07:13:16;30.87;;;14.30;;
14139;SDS011;7150;53.514;9.988;2024-02-15T07:15:42;28.90;;;14.60;;
14139;SDS011;7150;53.514;9.988;2024-02-15T07:18:09;31.53;;;15.00;;
14139;SDS011;7150;53.514;9.988;2024-02-15T07:20:35;30.47;;;14.97;;
14139;SDS011;7150;53.514;9.988;2024-02-15T07:23:01;30.83;;;15.27;;
14139;SDS011;7150;53.514;9.988;2024-02-15T07:25:28;29.20;;;15.73;;
14139;SDS011;7150;53.514;9.988;2024-02-15T07:27:54;29.30;;;15.87;;
14139;SDS011;7150;53.514;9.988;2024-02-15T07:30:21;22.97;;;13.27;;
14139;SDS011;7150;53.514;9.988;2024-02-15T07:32:47;28.60;;;14.63;;
14139;SDS011;7150;53.514;9.988;2024-02-15T07:35:13;27.13;;;14.03;;
14139;SDS011;7150;53.514;9.988;2024-02-15T07:37:50;24.20;;;13.50;;
14139;SDS011;7150;53.514;9.988;2024-02-15T07:40:21;24.20;;;14.33;;
14139;SDS011;7150;53.514;9.988;2024-02-15T07:42:47;28.10;;;14.53;;
14139;SDS011;7150;53.514;9.988;2024-02-15T07:45:13;25.47;;;14.10;;
14139;SDS011;7150;53.514;9.988;2024-02-15T07:47:39;26.57;;;13.70;;
14139;SDS011;7150;53.514;9.988;2024-02-15T07:50:04;24.50;;;13.70;;
14139;SDS011;7150;53.514;9.988;2024-02-15T07:52:30;21.30;;;12.37;;
14139;SDS011;7150;53.514;9.988;2024-02-15T07:54:56;22.17;;;12.77;;
14139;SDS011;7150;53.514;9.988;2024-02-15T07:57:21;20.90;;;11.63;;
14139;SDS011;7150;53.514;9.988;2024-02-15T07:59:47;19.37;;;11.00;;
14139;SDS011;7150;53.514;9.988;2024-02-15T08:02:14;16.00;;;10.20;;
14139;SDS011;7150;53.514;9.988;2024-02-15T08:04:43;20.40;;;11.57;;
14139;SDS011;7150;53.514;9.988;2024-02-15T08:07:09;20.60;;;11.27;;
14139;SDS011;7150;53.514;9.988;2024-02-15T08:09:36;17.53;;;10.90;;
14139;SDS011;7150;53.514;9.988;2024-02-15T08:12:02;16.37;;;10.17;;
14139;SDS011;7150;53.514;9.988;2024-02-15T08:14:28;14.07;;;9.37;;
14139;SDS011;7150;53.514;9.988;2024-02-15T08:16:54;15.00;;;9.67;;
14139;SDS011;7150;53.514;9.988;2024-02-15T08:19:20;12.07;;;8.43;;
14139;SDS011;7150;53.514;9.988;2024-02-15T08:21:47;13.30;;;8.23;;
14139;SDS011;7150;53.514;9.988;2024-02-15T08:24:15;11.97;;;8.03;;
14139;SDS011;7150;53.514;9.988;2024-02-15T08:26:42;12.17;;;7.43;;
14139;SDS011;7150;53.514;9.988;2024-02-15T08:29:08;12.20;;;8.00;;
14139;SDS011;7150;53.514;9.988;2024-02-15T08:31:34;11.57;;;7.47;;
14139;SDS011;7150;53.514;9.988;2024-02-15T08:34:03;11.17;;;7.13;;
14139;SDS011;7150;53.514;9.988;2024-02-15T08:36:35;9.23;;;6.60;;
14139;SDS011;7150;53.514;9.988;2024-02-15T08:39:04;10.37;;;6.97;;
14139;SDS011;7150;53.514;9.988;2024-02-15T08:41:30;9.17;;;6.20;;
14139;SDS011;7150;53.514;9.988;2024-02-15T08:43:56;7.73;;;5.30;;
14139;SDS011;7150;53.514;9.988;2024-02-15T08:46:23;7.83;;;5.40;;
14139;SDS011;7150;53.514;9.988;2024-02-15T08:48:49;9.03;;;5.40;;
14139;SDS011;7150;53.514;9.988;2024-02-15T08:51:15;7.70;;;5.23;;
14139;SDS011;7150;53.514;9.988;2024-02-15T08:53:41;6.60;;;4.50;;
14139;SDS011;7150;53.514;9.988;2024-02-15T08:56:07;6.70;;;4.73;;
14139;SDS011;7150;53.514;9.988;2024-02-15T08:58:35;7.93;;;5.10;;
14139;SDS011;7150;53.514;9.988;2024-02-15T09:01:00;7.07;;;4.73;;
14139;SDS011;7150;53.514;9.988;2024-02-15T09:03:27;6.77;;;4.73;;
14139;SDS011;7150;53.514;9.988;2024-02-15T09:05:53;6.87;;;4.53;;
14139;SDS011;7150;53.514;9.988;2024-02-15T09:08:18;7.57;;;5.23;;
14139;SDS011;7150;53.514;9.988;2024-02-15T09:10:46;7.70;;;5.30;;
14139;SDS011;7150;53.514;9.988;2024-02-15T09:13:12;8.53;;;4.93;;
14139;SDS011;7150;53.514;9.988;2024-02-15T09:15:37;6.97;;;5.03;;
14139;SDS011;7150;53.514;9.988;2024-02-15T09:18:04;7.77;;;5.17;;
14139;SDS011;7150;53.514;9.988;2024-02-15T09:20:30;6.57;;;4.83;;
14139;SDS011;7150;53.514;9.988;2024-02-15T09:22:58;7.33;;;4.77;;
14139;SDS011;7150;53.514;9.988;2024-02-15T09:25:25;8.03;;;5.63;;
14139;SDS011;7150;53.514;9.988;2024-02-15T09:27:51;8.07;;;5.20;;
14139;SDS011;7150;53.514;9.988;2024-02-15T09:30:18;8.80;;;5.17;;
14139;SDS011;7150;53.514;9.988;2024-02-15T09:32:44;9.03;;;6.03;;
14139;SDS011;7150;53.514;9.988;2024-02-15T09:35:11;7.80;;;5.67;;
14139;SDS011;7150;53.514;9.988;2024-02-15T09:37:38;7.97;;;5.70;;
14139;SDS011;7150;53.514;9.988;2024-02-15T09:40:09;10.23;;;6.17;;
14139;SDS011;7150;53.514;9.988;2024-02-15T09:42:36;9.27;;;5.90;;
14139;SDS011;7150;53.514;9.988;2024-02-15T09:45:04;9.63;;;6.57;;
14139;SDS011;7150;53.514;9.988;2024-02-15T09:47:36;9.87;;;6.23;;
14139;SDS011;7150;53.514;9.988;2024-02-15T09:50:06;9.97;;;6.43;;
14139;SDS011;7150;53.514;9.988;2024-02-15T09:52:32;9.73;;;7.43;;
14139;SDS011;7150;53.514;9.988;2024-02-15T09:55:02;9.93;;;7.30;;
14139;SDS011;7150;53.514;9.988;2024-02-15T09:57:28;10.10;;;6.73;;
14139;SDS011;7150;53.514;9.988;2024-02-15T09:59:56;10.23;;;7.30;;
14139;SDS011;7150;53.514;9.988;2024-02-15T10:02:22;11.03;;;6.67;;
14139;SDS011;7150;53.514;9.988;2024-02-15T10:04:49;10.50;;;7.53;;
14139;SDS011;7150;53.514;9.988;2024-02-15T10:07:15;13.33;;;7.90;;
14139;SDS011;7150;53.514;9.988;2024-02-15T10:09:43;11.17;;;7.07;;
14139;SDS011;7150;53.514;9.988;2024-02-15T10:12:09;12.23;;;7.23;;
14139;SDS011;7150;53.514;9.988;2024-02-15T10:14:34;10.03;;;7.47;;
14139;SDS011;7150;53.514;9.988;2024-02-15T10:17:06;11.53;;;7.40;;
14139;SDS011;7150;53.514;9.988;2024-02-15T10:19:36;13.07;;;8.33;;
14139;SDS011;7150;53.514;9.988;2024-02-15T10:22:06;10.83;;;8.20;;
14139;SDS011;7150;53.514;9.988;2024-02-15T10:24:32;11.77;;;8.50;;
14139;SDS011;7150;53.514;9.988;2024-02-15T10:27:01;11.83;;;8.17;;
14139;SDS011;7150;53.514;9.988;2024-02-15T10:29:29;12.77;;;8.87;;
14139;SDS011;7150;53.514;9.988;2024-02-15T10:32:01;14.43;;;9.40;;
14139;SDS011;7150;53.514;9.988;2024-02-15T10:34:28;13.27;;;9.67;;
14139;SDS011;7150;53.514;9.988;2024-02-15T10:36:55;13.50;;;9.10;;
14139;SDS011;7150;53.514;9.988;2024-02-15T10:39:41;17.30;;;10.13;;
14139;SDS011;7150;53.514;9.988;2024-02-15T10:42:07;16.17;;;9.47;;
14139;SDS011;7150;53.514;9.988;2024-02-15T10:44:36;14.43;;;9.43;;
14139;SDS011;7150;53.514;9.988;2024-02-15T10:47:03;16.20;;;10.27;;
14139;SDS011;7150;53.514;9.988;2024-02-15T10:49:32;14.70;;;10.63;;
14139;SDS011;7150;53.514;9.988;2024-02-15T10:51:59;18.20;;;11.67;;
14139;SDS011;7150;53.514;9.988;2024-02-15T10:57:03;15.83;;;10.40;;
14139;SDS011;7150;53.514;9.988;2024-02-15T10:59:31;15.40;;;10.70;;
14139;SDS011;7150;53.514;9.988;2024-02-15T11:02:01;16.47;;;10.90;;
14139;SDS011;7150;53.514;9.988;2024-02-15T11:04:45;16.30;;;10.67;;
14139;SDS011;7150;53.514;9.988;2024-02-15T11:07:19;20.00;;;11.87;;
14139;SDS011;7150;53.514;9.988;2024-02-15T11:09:45;17.63;;;11.60;;
14139;SDS011;7150;53.514;9.988;2024-02-15T11:12:10;16.73;;;10.70;;
14139;SDS011;7150;53.514;9.988;2024-02-15T11:14:36;15.17;;;10.73;;
14139;SDS011;7150;53.514;9.988;2024-02-15T11:17:02;19.90;;;12.23;;
14139;SDS011;7150;53.514;9.988;2024-02-15T11:22:10;18.93;;;11.67;;
14139;SDS011;7150;53.514;9.988;2024-02-15T11:24:45;17.00;;;11.00;;
14139;SDS011;7150;53.514;9.988;2024-02-15T11:27:12;20.43;;;12.53;;
14139;SDS011;7150;53.514;9.988;2024-02-15T11:29:52;17.67;;;11.83;;
14139;SDS011;7150;53.514;9.988;2024-02-15T11:35:23;17.07;;;11.77;;
14139;SDS011;7150;53.514;9.988;2024-02-15T11:37:50;20.53;;;12.47;;
14139;SDS011;7150;53.514;9.988;2024-02-15T11:42:42;21.10;;;13.20;;
14139;SDS011;7150;53.514;9.988;2024-02-15T11:45:11;20.53;;;13.53;;
14139;SDS011;7150;53.514;9.988;2024-02-15T11:47:38;20.33;;;12.57;;
14139;SDS011;7150;53.514;9.988;2024-02-15T11:50:09;20.63;;;14.20;;
14139;SDS011;7150;53.514;9.988;2024-02-15T11:52:39;22.50;;;14.70;;
14139;SDS011;7150;53.514;9.988;2024-02-15T11:55:19;20.70;;;14.20;;
14139;SDS011;7150;53.514;9.988;2024-02-15T11:57:58;21.90;;;13.67;;
14139;SDS011;7150;53.514;9.988;2024-02-15T12:00:30;20.47;;;13.93;;
14139;SDS011;7150;53.514;9.988;2024-02-15T12:03:15;17.27;;;12.63;;
14139;SDS011;7150;53.514;9.988;2024-02-15T12:06:00;17.30;;;11.90;;
14139;SDS011;7150;53.514;9.988;2024-02-15T12:08:48;20.03;;;13.10;;
14139;SDS011;7150;53.514;9.988;2024-02-15T12:11:33;17.47;;;11.97;;
14139;SDS011;7150;53.514;9.988;2024-02-15T12:14:17;19.30;;;13.00;;
14139;SDS011;7150;53.514;9.988;2024-02-15T12:17:03;19.77;;;13.40;;
14139;SDS011;7150;53.514;9.988;2024-02-15T12:19:49;20.00;;;12.63;;
14139;SDS011;7150;53.514;9.988;2024-02-15T12:22:17;16.33;;;11.47;;
14139;SDS011;7150;53.514;9.988;2024-02-15T12:24:52;18.27;;;12.33;;
14139;SDS011;7150;53.514;9.988;2024-02-15T12:27:18;15.97;;;11.00;;
14139;SDS011;7150;53.514;9.988;2024-02-15T12:29:45;16.73;;;11.60;;
14139;SDS011;7150;53.514;9.988;2024-02-15T12:32:23;14.90;;;10.90;;
14139;SDS011;7150;53.514;9.988;2024-02-15T12:34:53;16.10;;;10.70;;
14139;SDS011;7150;53.514;9.988;2024-02-15T12:37:33;14.50;;;10.27;;
14139;SDS011;7150;53.514;9.988;2024-02-15T12:40:09;12.87;;;9.60;;
14139;SDS011;7150;53.514;9.988;2024-02-15T12:42:38;12.43;;;9.70;;
14139;SDS011;7150;53.514;9.988;2024-02-15T12:45:04;14.67;;;9.27;;
14139;SDS011;7150;53.514;9.988;2024-02-15T12:47:32;11.57;;;8.70;;
14139;SDS011;7150;53.514;9.988;2024-02-15T12:49:57;9.93;;;8.40;;
14139;SDS011;7150;53.514;9.988;2024-02-15T12:52:33;10.53;;;7.47;;
14139;SDS011;7150;53.514;9.988;2024-02-15T12:55:07;9.03;;;6.83;;
14139;SDS011;7150;53.514;9.988;2024-02-15T12:57:33;9.03;;;6.57;;
14139;SDS011;7150;53.514;9.988;2024-02-15T12:59:58;10.33;;;6.53;;
14139;SDS011;7150;53.514;9.988;2024-02-15T13:02:25;7.67;;;5.83;;
14139;SDS011;7150;53.514;9.988;2024-02-15T13:04:51;8.97;;;6.30;;
14139;SDS011;7150;53.514;9.988;2024-02-15T13:07:23;8.27;;;6.07;;
14139;SDS011;7150;53.514;9.988;2024-02-15T13:09:48;8.27;;;6.13;;
14139;SDS011;7150;53.514;9.988;2024-02-15T13:12:14;6.87;;;5.80;;
14139;SDS011;7150;53.514;9.988;2024-02-15T13:14:40;6.73;;;5.30;;
14139;SDS011;7150;53.514;9.988;2024-02-15T13:17:05;6.00;;;5.40;;
14139;SDS011;7150;53.514;9.988;2024-02-15T13:19:31;6.67;;;5.27;;
14139;SDS011;7150;53.514;9.988;2024-02-15T13:22:00;7.00;;;4.73;;
14139;SDS011;7150;53.514;9.988;2024-02-15T13:24:26;7.57;;;4.90;;
14139;SDS011;7150;53.514;9.988;2024-02-15T13:26:51;6.90;;;5.20;;
14139;SDS011;7150;53.514;9.988;2024-02-15T13:29:17;5.57;;;4.60;;
14139;SDS011;7150;53.514;9.988;2024-02-15T13:31:42;6.67;;;5.07;;
14139;SDS011;7150;53.514;9.988;2024-02-15T13:34:08;6.03;;;4.20;;
14139;SDS011;7150;53.514;9.988;2024-02-15T13:36:34;6.47;;;4.73;;
14139;SDS011;7150;53.514;9.988;2024-02-15T13:39:01;5.83;;;4.93;;
14139;SDS011;7150;53.514;9.988;2024-02-15T13:41:29;5.97;;;4.80;;
14139;SDS011;7150;53.514;9.988;2024-02-15T13:43:55;9.20;;;5.00;;
14139;SDS011;7150;53.514;9.988;2024-02-15T13:46:20;7.10;;;4.90;;
14139;SDS011;7150;53.514;9.988;2024-02-15T13:48:46;6.57;;;4.93;;
14139;SDS011;7150;53.514;9.988;2024-02-15T13:51:11;6.13;;;4.73;;
14139;SDS011;7150;53.514;9.988;2024-02-15T13:53:37;6.47;;;5.33;;
14139;SDS011;7150;53.514;9.988;2024-02-15T13:56:02;8.63;;;4.87;;
14139;SDS011;7150;53.514;9.988;2024-02-15T13:58:30;8.23;;;4.93;;
14139;SDS011;7150;53.514;9.988;2024-02-15T14:00:56;8.90;;;4.93;;
14139;SDS011;7150;53.514;9.988;2024-02-15T14:03:22;6.80;;;5.17;;
14139;SDS011;7150;53.514;9.988;2024-02-15T14:05:49;8.03;;;5.43;;
14139;SDS011;7150;53.514;9.988;2024-02-15T14:08:15;5.63;;;5.00;;
14139;SDS011;7150;53.514;9.988;2024-02-15T14:10:40;6.70;;;4.73;;
14139;SDS011;7150;53.514;9.988;2024-02-15T14:13:06;7.47;;;5.47;;
14139;SDS011;7150;53.514;9.988;2024-02-15T14:15:36;6.13;;;5.23;;
14139;SDS011;7150;53.514;9.988;2024-02-15T14:18:08;6.20;;;4.23;;
14139;SDS011;7150;53.514;9.988;2024-02-15T14:20:35;5.33;;;4.83;;
14139;SDS011;7150;53.514;9.988;2024-02-15T14:23:02;5.00;;;4.30;;
14139;SDS011;7150;53.514;9.988;2024-02-15T14:25:31;6.80;;;4.57;;
14139;SDS011;7150;53.514;9.988;2024-02-15T14:27:57;5.43;;;4.30;;
14139;SDS011;7150;53.514;9.988;2024-02-15T14:30:23;6.50;;;4.10;;
14139;SDS011;7150;53.514;9.988;2024-02-15T14:33:08;6.83;;;4.57;;
14139;SDS011;7150;53.514;9.988;2024-02-15T14:35:36;5.07;;;4.30;;
14139;SDS011;7150;53.514;9.988;2024-02-15T14:38:05;7.53;;;4.30;;
14139;SDS011;7150;53.514;9.988;2024-02-15T14:40:40;6.23;;;4.47;;
14139;SDS011;7150;53.514;9.988;2024-02-15T14:43:16;6.50;;;4.70;;
14139;SDS011;7150;53.514;9.988;2024-02-15T14:45:44;7.07;;;4.30;;
14139;SDS011;7150;53.514;9.988;2024-02-15T14:48:09;5.10;;;4.20;;
14139;SDS011;7150;53.514;9.988;2024-02-15T14:50:35;5.97;;;4.73;;
14139;SDS011;7150;53.514;9.988;2024-02-15T14:53:02;5.00;;;4.27;;
14139;SDS011;7150;53.514;9.988;2024-02-15T14:55:27;5.10;;;3.90;;
14139;SDS011;7150;53.514;9.988;2024-02-15T14:57:56;7.60;;;4.80;;
14139;SDS011;7150;53.514;9.988;2024-02-15T15:00:24;6.57;;;4.63;;